createdAt,value
2022-10-06T00:00:25.719Z,57.04
2022-10-06T00:01:19.844Z,57.24
2022-10-06T00:01:53.402Z,57.58
2022-10-06T00:02:26.797Z,58.02
2022-10-06T00:03:00.210Z,58.30
2022-10-06T00:03:33.602Z,58.66
2022-10-06T00:04:06.911Z,59.11
2022-10-06T00:04:40.062Z,59.47
2022-10-06T00:05:13.535Z,59.66
2022-10-06T00:05:46.779Z,60.10
2022-10-06T00:06:20.286Z,60.41
2022-10-06T00:06:53.333Z,60.63
2022-10-06T00:07:26.447Z,60.80
2022-10-06T00:08:01.098Z,61.17
2022-10-06T00:08:37.393Z,61.40
2022-10-06T00:09:10.598Z,61.62
2022-10-06T00:09:43.935Z,61.81
2022-10-06T00:10:17.359Z,61.97
2022-10-06T00:10:56.037Z,62.22
2022-10-06T00:11:29.198Z,62.32
2022-10-06T00:12:02.891Z,62.62
2022-10-06T00:12:47.451Z,62.83
2022-10-06T00:13:20.702Z,62.61
2022-10-06T00:13:53.931Z,61.83
2022-10-06T00:14:27.490Z,60.89
2022-10-06T00:15:00.606Z,59.65
2022-10-06T00:15:34.544Z,58.89
2022-10-06T00:16:25.872Z,57.77
2022-10-06T00:16:59.072Z,57.45
2022-10-06T00:17:32.252Z,57.34
2022-10-06T00:18:05.461Z,57.46
2022-10-06T00:18:39.150Z,57.73
2022-10-06T00:19:12.305Z,58.15
2022-10-06T00:19:45.416Z,58.54
2022-10-06T00:20:19.829Z,58.92
2022-10-06T00:21:01.703Z,59.31
2022-10-06T00:21:34.997Z,59.69
2022-10-06T00:22:08.109Z,60.02
2022-10-06T00:22:44.738Z,60.21
2022-10-06T00:23:18.328Z,60.56
2022-10-06T00:23:51.562Z,60.81
2022-10-06T00:24:25.105Z,60.97
2022-10-06T00:24:58.231Z,61.24
2022-10-06T00:25:31.491Z,61.48
2022-10-06T00:26:04.846Z,61.74
2022-10-06T00:26:38.252Z,61.86
2022-10-06T00:27:11.391Z,61.98
2022-10-06T00:27:50.161Z,62.28
2022-10-06T00:28:23.605Z,62.21
2022-10-06T00:28:56.755Z,62.54
2022-10-06T00:29:29.934Z,62.76
2022-10-06T00:30:06.991Z,62.87
2022-10-06T00:30:40.102Z,62.34
2022-10-06T00:31:13.254Z,61.86
2022-10-06T00:31:46.296Z,60.72
2022-10-06T00:32:19.491Z,59.77
2022-10-06T00:32:57.583Z,58.75
2022-10-06T00:33:30.727Z,57.54
2022-10-06T00:34:03.914Z,57.13
2022-10-06T00:34:37.212Z,57.02
2022-10-06T00:35:10.459Z,57.09
2022-10-06T00:35:46.752Z,57.40
2022-10-06T00:36:20.235Z,57.73
2022-10-06T00:36:53.785Z,58.06
2022-10-06T00:37:28.575Z,58.41
2022-10-06T00:38:02.562Z,58.72
2022-10-06T00:38:36.054Z,59.17
2022-10-06T00:39:09.387Z,59.49
2022-10-06T00:39:42.795Z,59.72
2022-10-06T00:40:16.990Z,59.90
2022-10-06T00:40:51.566Z,60.28
2022-10-06T00:41:24.802Z,60.65
2022-10-06T00:41:59.892Z,61.00
2022-10-06T00:42:33.473Z,61.21
2022-10-06T00:43:06.776Z,61.34
2022-10-06T00:43:55.162Z,61.56
2022-10-06T00:44:28.578Z,61.74
2022-10-06T00:45:06.241Z,61.89
2022-10-06T00:45:46.598Z,62.01
2022-10-06T00:46:49.013Z,62.27
2022-10-06T00:47:24.998Z,62.43
2022-10-06T00:48:03.335Z,62.71
2022-10-06T00:48:37.177Z,63.01
2022-10-06T00:49:28.085Z,62.57
2022-10-06T00:50:02.944Z,62.03
2022-10-06T00:50:36.459Z,60.89
2022-10-06T00:51:10.163Z,60.16
2022-10-06T00:51:48.653Z,58.88
2022-10-06T00:52:24.824Z,58.11
2022-10-06T00:52:58.591Z,57.40
2022-10-06T00:53:32.992Z,57.12
2022-10-06T00:54:06.910Z,57.21
2022-10-06T00:54:41.000Z,57.42
2022-10-06T00:55:14.459Z,57.76
2022-10-06T00:55:47.608Z,58.05
2022-10-06T00:56:21.427Z,58.45
2022-10-06T00:56:58.098Z,58.84
2022-10-06T00:57:32.043Z,59.21
2022-10-06T00:58:08.835Z,59.41
2022-10-06T00:58:44.706Z,59.84
2022-10-06T00:59:20.440Z,60.08
2022-10-06T00:59:54.092Z,60.29
2022-10-06T01:00:28.875Z,60.47
2022-10-06T01:01:03.244Z,60.79
2022-10-06T01:01:37.370Z,61.16
2022-10-06T01:02:17.913Z,61.28
2022-10-06T01:03:12.849Z,61.43
2022-10-06T01:03:54.076Z,61.55
2022-10-06T01:04:31.589Z,61.82
2022-10-06T01:05:07.421Z,61.91
2022-10-06T01:05:49.515Z,62.15
2022-10-06T01:06:22.638Z,62.33
2022-10-06T01:06:59.935Z,62.48
2022-10-06T01:07:33.064Z,62.57
2022-10-06T01:08:06.714Z,62.64
2022-10-06T01:08:40.656Z,62.24
2022-10-06T01:09:19.992Z,61.42
2022-10-06T01:09:54.074Z,60.75
2022-10-06T01:10:28.454Z,59.72
2022-10-06T01:11:03.242Z,58.78
2022-10-06T01:11:41.710Z,57.77
2022-10-06T01:12:17.441Z,57.38
2022-10-06T01:12:51.973Z,57.23
2022-10-06T01:13:27.507Z,57.41
2022-10-06T01:14:00.642Z,57.68
2022-10-06T01:14:37.227Z,58.06
2022-10-06T01:15:11.164Z,58.52
2022-10-06T01:16:18.896Z,58.79
2022-10-06T01:17:00.596Z,59.50
2022-10-06T01:17:39.668Z,59.94
2022-10-06T01:18:15.469Z,60.20
2022-10-06T01:18:49.111Z,60.47
2022-10-06T01:19:32.030Z,60.77
2022-10-06T01:20:09.511Z,60.93
2022-10-06T01:20:49.635Z,61.23
2022-10-06T01:21:39.519Z,61.51
2022-10-06T01:22:17.253Z,61.67
2022-10-06T01:22:56.105Z,61.97
2022-10-06T01:23:33.226Z,62.11
2022-10-06T01:24:06.603Z,62.36
2022-10-06T01:24:39.915Z,62.53
2022-10-06T01:25:16.698Z,62.66
2022-10-06T01:25:58.579Z,62.75
2022-10-06T01:26:35.968Z,62.52
2022-10-06T01:27:12.549Z,62.07
2022-10-06T01:27:51.675Z,60.58
2022-10-06T01:28:26.346Z,59.56
2022-10-06T01:29:00.012Z,58.48
2022-10-06T01:29:34.702Z,57.74
2022-10-06T01:30:10.817Z,57.29
2022-10-06T01:30:51.097Z,57.21
2022-10-06T01:31:24.763Z,57.33
2022-10-06T01:31:58.073Z,57.62
2022-10-06T01:32:37.177Z,57.94
2022-10-06T01:33:10.376Z,58.19
2022-10-06T01:33:43.843Z,58.72
2022-10-06T01:34:17.316Z,59.09
2022-10-06T01:34:50.923Z,59.43
2022-10-06T01:35:24.533Z,59.71
2022-10-06T01:35:58.450Z,59.95
2022-10-06T01:36:31.597Z,60.32
2022-10-06T01:37:04.924Z,60.74
2022-10-06T01:37:38.169Z,61.01
2022-10-06T01:38:11.206Z,61.24
2022-10-06T01:38:44.359Z,61.43
2022-10-06T01:39:18.142Z,61.68
2022-10-06T01:39:51.263Z,61.82
2022-10-06T01:40:25.854Z,61.98
2022-10-06T01:40:59.145Z,62.21
2022-10-06T01:41:34.294Z,62.40
2022-10-06T01:42:07.440Z,62.60
2022-10-06T01:42:40.866Z,62.69
2022-10-06T01:43:14.389Z,62.45
2022-10-06T01:43:47.393Z,61.83
2022-10-06T01:44:20.525Z,61.02
2022-10-06T01:44:53.805Z,60.08
2022-10-06T01:45:26.913Z,59.43
2022-10-06T01:46:00.351Z,58.59
2022-10-06T01:46:33.539Z,57.73
2022-10-06T01:47:07.459Z,57.31
2022-10-06T01:47:40.592Z,57.22
2022-10-06T01:48:13.703Z,57.34
2022-10-06T01:48:46.882Z,57.53
2022-10-06T01:49:20.017Z,57.95
2022-10-06T01:49:53.590Z,58.36
2022-10-06T01:50:26.650Z,58.67
2022-10-06T01:50:59.825Z,59.27
2022-10-06T01:51:33.134Z,59.57
2022-10-06T01:52:07.141Z,59.81
2022-10-06T01:52:40.229Z,60.17
2022-10-06T01:53:13.456Z,60.41
2022-10-06T01:53:46.772Z,60.68
2022-10-06T01:54:19.914Z,60.96
2022-10-06T01:54:54.178Z,61.29
2022-10-06T01:55:27.698Z,61.50
2022-10-06T01:56:00.842Z,61.74
2022-10-06T01:56:34.036Z,62.04
2022-10-06T01:57:08.741Z,62.10
2022-10-06T01:57:42.770Z,62.35
2022-10-06T01:58:16.345Z,62.43
2022-10-06T01:58:49.419Z,62.69
2022-10-06T01:59:22.612Z,62.91
2022-10-06T01:59:55.639Z,62.85
2022-10-06T02:00:28.918Z,62.28
2022-10-06T02:01:07.404Z,61.54
2022-10-06T02:01:40.750Z,61.13
2022-10-06T02:02:13.909Z,59.93
2022-10-06T02:02:47.016Z,59.15
2022-10-06T02:03:20.294Z,58.39
2022-10-06T02:03:53.580Z,57.83
2022-10-06T02:04:27.001Z,57.67
2022-10-06T02:05:00.165Z,57.73
2022-10-06T02:05:34.126Z,57.92
2022-10-06T02:06:09.033Z,58.21
2022-10-06T02:06:42.440Z,58.62
2022-10-06T02:07:15.935Z,59.05
2022-10-06T02:07:49.002Z,59.42
2022-10-06T02:08:22.146Z,59.71
2022-10-06T02:08:55.664Z,60.06
2022-10-06T02:09:28.762Z,60.53
2022-10-06T02:10:02.224Z,60.72
2022-10-06T02:10:35.971Z,61.01
2022-10-06T02:11:12.283Z,61.27
2022-10-06T02:11:45.346Z,61.42
2022-10-06T02:12:18.512Z,61.76
2022-10-06T02:12:55.204Z,61.94
2022-10-06T02:13:28.347Z,62.24
2022-10-06T02:14:02.564Z,62.36
2022-10-06T02:14:35.728Z,62.67
2022-10-06T02:15:11.278Z,62.81
2022-10-06T02:15:44.377Z,62.88
2022-10-06T02:16:17.641Z,62.64
2022-10-06T02:16:51.006Z,62.31
2022-10-06T02:17:24.534Z,61.58
2022-10-06T02:17:57.584Z,60.98
2022-10-06T02:18:31.530Z,59.97
2022-10-06T02:19:04.889Z,59.40
2022-10-06T02:19:38.034Z,58.19
2022-10-06T02:20:11.701Z,57.56
2022-10-06T02:20:44.919Z,57.27
2022-10-06T02:21:20.798Z,57.34
2022-10-06T02:21:53.867Z,57.63
2022-10-06T02:22:26.960Z,57.89
2022-10-06T02:23:00.061Z,58.32
2022-10-06T02:23:33.650Z,58.62
2022-10-06T02:24:06.740Z,59.13
2022-10-06T02:24:39.829Z,59.57
2022-10-06T02:25:13.019Z,59.93
2022-10-06T02:25:46.110Z,60.32
2022-10-06T02:26:19.442Z,60.62
2022-10-06T02:26:53.882Z,60.81
2022-10-06T02:27:27.052Z,61.05
2022-10-06T02:28:00.909Z,61.36
2022-10-06T02:28:35.672Z,61.52
2022-10-06T02:29:08.754Z,61.98
2022-10-06T02:29:41.913Z,62.14
2022-10-06T02:30:15.045Z,62.32
2022-10-06T02:30:48.105Z,62.54
2022-10-06T02:31:21.334Z,62.82
2022-10-06T02:31:55.295Z,62.69
2022-10-06T02:32:36.443Z,62.44
2022-10-06T02:33:09.484Z,61.94
2022-10-06T02:33:44.141Z,60.95
2022-10-06T02:34:17.257Z,60.29
2022-10-06T02:34:50.605Z,59.41
2022-10-06T02:35:23.783Z,58.43
2022-10-06T02:35:56.974Z,57.38
2022-10-06T02:36:30.168Z,57.08
2022-10-06T02:37:03.518Z,57.06
2022-10-06T02:37:36.615Z,57.23
2022-10-06T02:38:10.074Z,57.53
2022-10-06T02:38:43.312Z,57.90
2022-10-06T02:39:16.493Z,58.27
2022-10-06T02:39:49.802Z,58.78
2022-10-06T02:40:23.520Z,59.08
2022-10-06T02:40:57.862Z,59.49
2022-10-06T02:41:32.122Z,59.75
2022-10-06T02:42:05.812Z,60.24
2022-10-06T02:42:40.028Z,60.62
2022-10-06T02:43:13.227Z,60.95
2022-10-06T02:43:46.929Z,61.26
2022-10-06T02:44:20.234Z,61.37
2022-10-06T02:44:54.495Z,61.69
2022-10-06T02:45:28.259Z,61.98
2022-10-06T02:46:04.455Z,62.20
2022-10-06T02:46:37.677Z,62.35
2022-10-06T02:47:14.898Z,62.70
2022-10-06T02:47:47.948Z,62.85
2022-10-06T02:48:21.330Z,62.93
2022-10-06T02:48:54.623Z,62.07
2022-10-06T02:49:28.718Z,61.48
2022-10-06T02:50:04.367Z,60.48
2022-10-06T02:50:40.367Z,59.53
2022-10-06T02:51:16.304Z,58.63
2022-10-06T02:51:49.484Z,57.74
2022-10-06T02:52:23.646Z,57.33
2022-10-06T02:52:57.335Z,57.29
2022-10-06T02:53:30.767Z,57.46
2022-10-06T02:54:03.940Z,57.72
2022-10-06T02:54:37.441Z,58.16
2022-10-06T02:55:10.834Z,58.64
2022-10-06T02:55:44.071Z,58.92
2022-10-06T02:56:25.710Z,59.32
2022-10-06T02:56:59.045Z,59.87
2022-10-06T02:57:32.404Z,60.10
2022-10-06T02:58:05.729Z,60.43
2022-10-06T02:58:43.348Z,60.75
2022-10-06T02:59:16.484Z,61.29
2022-10-06T02:59:49.762Z,61.50
2022-10-06T03:00:22.981Z,61.83
2022-10-06T03:01:10.523Z,62.02
2022-10-06T03:01:43.805Z,62.17
2022-10-06T03:02:17.079Z,62.49
2022-10-06T03:02:50.494Z,62.75
2022-10-06T03:03:23.830Z,62.90
2022-10-06T03:03:57.024Z,62.80
2022-10-06T03:04:30.771Z,62.49
2022-10-06T03:05:04.286Z,62.07
2022-10-06T03:05:37.455Z,61.41
2022-10-06T03:06:22.880Z,60.69
2022-10-06T03:06:57.932Z,60.40
2022-10-06T03:07:31.020Z,59.14
2022-10-06T03:08:04.098Z,58.01
2022-10-06T03:08:37.177Z,57.34
2022-10-06T03:09:10.802Z,57.11
2022-10-06T03:09:43.965Z,57.11
2022-10-06T03:10:17.176Z,57.42
2022-10-06T03:10:50.207Z,57.80
2022-10-06T03:11:26.428Z,58.18
2022-10-06T03:11:59.704Z,58.65
2022-10-06T03:12:32.932Z,59.16
2022-10-06T03:13:06.493Z,59.60
2022-10-06T03:13:39.554Z,59.93
2022-10-06T03:14:13.141Z,60.46
2022-10-06T03:14:48.037Z,60.69
2022-10-06T03:15:21.694Z,61.07
2022-10-06T03:15:54.927Z,61.48
2022-10-06T03:16:39.527Z,61.68
2022-10-06T03:17:12.828Z,61.86
2022-10-06T03:17:49.384Z,62.22
2022-10-06T03:18:22.697Z,62.49
2022-10-06T03:18:57.215Z,62.85
2022-10-06T03:19:30.487Z,62.78
2022-10-06T03:20:04.325Z,62.60
2022-10-06T03:20:37.594Z,62.06
2022-10-06T03:21:11.743Z,61.22
2022-10-06T03:21:44.925Z,60.44
2022-10-06T03:22:18.040Z,59.61
2022-10-06T03:22:54.429Z,58.41
2022-10-06T03:23:27.683Z,57.37
2022-10-06T03:24:01.140Z,56.68
2022-10-06T03:24:35.230Z,56.51
2022-10-06T03:25:09.934Z,56.65
2022-10-06T03:25:43.310Z,56.97
2022-10-06T03:26:20.206Z,57.44
2022-10-06T03:26:53.537Z,57.80
2022-10-06T03:27:26.609Z,58.38
2022-10-06T03:27:59.785Z,58.92
2022-10-06T03:28:33.560Z,59.35
2022-10-06T03:29:11.352Z,59.75
2022-10-06T03:29:46.348Z,60.20
2022-10-06T03:30:19.696Z,60.66
2022-10-06T03:30:53.748Z,60.97
2022-10-06T03:31:27.101Z,61.26
2022-10-06T03:32:00.261Z,61.66
2022-10-06T03:32:33.351Z,61.91
2022-10-06T03:33:06.413Z,62.07
2022-10-06T03:33:39.554Z,62.40
2022-10-06T03:34:13.896Z,62.69
2022-10-06T03:34:47.947Z,63.08
2022-10-06T03:35:21.497Z,63.03
2022-10-06T03:36:02.128Z,62.19
2022-10-06T03:36:36.540Z,62.02
2022-10-06T03:37:10.382Z,60.33
2022-10-06T03:37:44.002Z,59.38
2022-10-06T03:38:17.150Z,58.61
2022-10-06T03:38:51.080Z,57.66
2022-10-06T03:39:24.210Z,56.98
2022-10-06T03:39:57.456Z,56.89
2022-10-06T03:40:30.739Z,57.09
2022-10-06T03:41:04.816Z,57.50
2022-10-06T03:41:38.848Z,57.88
2022-10-06T03:42:11.931Z,58.40
2022-10-06T03:42:45.268Z,58.83
2022-10-06T03:43:18.367Z,59.25
2022-10-06T03:43:52.938Z,59.71
2022-10-06T03:44:26.125Z,60.21
2022-10-06T03:44:59.239Z,60.54
2022-10-06T03:45:32.583Z,61.08
2022-10-06T03:46:07.128Z,61.43
2022-10-06T03:46:40.229Z,61.67
2022-10-06T03:47:17.263Z,61.93
2022-10-06T03:47:50.787Z,62.24
2022-10-06T03:48:24.109Z,62.67
2022-10-06T03:48:57.832Z,63.03
2022-10-06T03:49:30.895Z,62.92
2022-10-06T03:50:04.176Z,62.39
2022-10-06T03:50:37.258Z,61.77
2022-10-06T03:51:16.680Z,61.13
2022-10-06T03:51:50.002Z,60.65
2022-10-06T03:52:25.982Z,59.78
2022-10-06T03:52:59.509Z,59.54
2022-10-06T03:53:33.625Z,59.03
2022-10-06T03:54:11.109Z,58.30
2022-10-06T03:54:44.210Z,58.02
2022-10-06T03:55:17.457Z,58.08
2022-10-06T03:55:51.029Z,58.30
2022-10-06T03:56:29.398Z,58.67
2022-10-06T03:57:02.897Z,59.20
2022-10-06T03:57:36.247Z,59.47
2022-10-06T03:58:09.489Z,59.95
2022-10-06T03:58:50.207Z,60.39
2022-10-06T03:59:23.603Z,60.69
2022-10-06T04:00:00.165Z,61.23
2022-10-06T04:00:33.261Z,61.55
2022-10-06T04:01:09.300Z,61.88
2022-10-06T04:01:45.448Z,62.27
2022-10-06T04:02:18.740Z,62.55
2022-10-06T04:02:52.081Z,62.93
2022-10-06T04:03:25.235Z,62.94
2022-10-06T04:04:00.043Z,62.68
2022-10-06T04:04:33.350Z,62.35
2022-10-06T04:05:07.154Z,61.70
2022-10-06T04:05:40.326Z,60.96
2022-10-06T04:06:17.864Z,60.16
2022-10-06T04:06:51.105Z,59.66
2022-10-06T04:07:24.160Z,59.03
2022-10-06T04:07:57.631Z,58.27
2022-10-06T04:08:32.693Z,57.89
2022-10-06T04:09:13.999Z,57.86
2022-10-06T04:09:48.373Z,58.03
2022-10-06T04:10:21.605Z,58.44
2022-10-06T04:10:55.111Z,58.90
2022-10-06T04:11:30.781Z,59.33
2022-10-06T04:12:03.892Z,59.68
2022-10-06T04:12:37.038Z,60.21
2022-10-06T04:13:10.064Z,60.51
2022-10-06T04:13:44.621Z,60.92
2022-10-06T04:14:17.696Z,61.24
2022-10-06T04:14:50.770Z,61.59
2022-10-06T04:15:23.877Z,61.92
2022-10-06T04:15:57.681Z,62.29
2022-10-06T04:16:33.194Z,62.55
2022-10-06T04:17:06.438Z,62.93
2022-10-06T04:17:39.632Z,63.15
2022-10-06T04:18:14.637Z,62.71
2022-10-06T04:18:51.250Z,62.37
2022-10-06T04:19:25.230Z,61.76
2022-10-06T04:19:58.349Z,60.75
2022-10-06T04:20:31.789Z,59.83
2022-10-06T04:21:05.726Z,59.00
2022-10-06T04:21:41.029Z,58.37
2022-10-06T04:22:14.113Z,58.06
2022-10-06T04:22:47.288Z,58.10
2022-10-06T04:23:21.116Z,58.34
2022-10-06T04:23:56.053Z,58.73
2022-10-06T04:24:29.363Z,59.14
2022-10-06T04:25:02.509Z,59.45
2022-10-06T04:25:35.760Z,60.01
2022-10-06T04:26:14.149Z,60.39
2022-10-06T04:26:49.172Z,60.77
2022-10-06T04:27:28.478Z,61.21
2022-10-06T04:28:01.850Z,61.50
2022-10-06T04:28:36.915Z,62.01
2022-10-06T04:29:10.057Z,62.39
2022-10-06T04:29:43.157Z,62.76
2022-10-06T04:30:16.420Z,63.09
2022-10-06T04:31:00.370Z,62.98
2022-10-06T04:31:37.326Z,62.47
2022-10-06T04:32:11.338Z,61.71
2022-10-06T04:32:44.944Z,61.02
2022-10-06T04:33:18.452Z,60.05
2022-10-06T04:33:57.226Z,59.56
2022-10-06T04:34:31.842Z,58.72
2022-10-06T04:35:05.327Z,57.95
2022-10-06T04:35:38.454Z,57.64
2022-10-06T04:36:16.122Z,57.68
2022-10-06T04:36:49.268Z,57.90
2022-10-06T04:37:22.625Z,58.34
2022-10-06T04:37:57.162Z,58.75
2022-10-06T04:38:33.921Z,59.25
2022-10-06T04:39:08.365Z,59.76
2022-10-06T04:39:41.478Z,60.32
2022-10-06T04:40:14.922Z,60.65
2022-10-06T04:40:48.023Z,61.05
2022-10-06T04:41:21.207Z,61.50
2022-10-06T04:41:54.295Z,61.81
2022-10-06T04:42:34.723Z,62.17
2022-10-06T04:43:08.886Z,62.66
2022-10-06T04:43:42.830Z,62.92
2022-10-06T04:44:16.063Z,62.90
2022-10-06T04:44:49.705Z,62.52
2022-10-06T04:45:23.066Z,61.92
2022-10-06T04:45:58.188Z,61.01
2022-10-06T04:46:48.706Z,60.37
2022-10-06T04:47:22.077Z,60.52
2022-10-06T04:47:55.049Z,58.60
2022-10-06T04:48:29.735Z,58.01
2022-10-06T04:49:03.845Z,57.49
2022-10-06T04:49:36.927Z,57.51
2022-10-06T04:50:10.333Z,57.69
2022-10-06T04:50:43.593Z,58.14
2022-10-06T04:51:17.792Z,58.51
2022-10-06T04:51:51.351Z,58.99
2022-10-06T04:52:24.616Z,59.45
2022-10-06T04:52:57.793Z,59.81
2022-10-06T04:53:31.577Z,60.23
2022-10-06T04:54:04.855Z,60.77
2022-10-06T04:54:37.891Z,61.15
2022-10-06T04:55:11.393Z,61.50
2022-10-06T04:55:44.453Z,61.92
2022-10-06T04:56:37.240Z,62.21
2022-10-06T04:57:10.456Z,62.27
2022-10-06T04:57:43.579Z,63.04
2022-10-06T04:58:16.766Z,62.84
2022-10-06T04:58:52.361Z,62.03
2022-10-06T04:59:45.427Z,61.59
2022-10-06T05:00:25.481Z,61.53
2022-10-06T05:01:00.537Z,58.96
2022-10-06T05:01:36.902Z,57.93
2022-10-06T05:02:10.286Z,57.46
2022-10-06T05:02:43.481Z,57.37
2022-10-06T05:03:16.707Z,57.57
2022-10-06T05:03:52.278Z,57.87
2022-10-06T05:04:25.422Z,58.38
2022-10-06T05:04:59.152Z,58.89
2022-10-06T05:05:32.999Z,59.28
2022-10-06T05:06:14.992Z,59.76
2022-10-06T05:06:48.136Z,60.08
2022-10-06T05:07:21.269Z,60.73
2022-10-06T05:07:54.554Z,61.14
2022-10-06T05:08:27.976Z,61.50
2022-10-06T05:09:21.379Z,61.79
2022-10-06T05:09:54.639Z,61.98
2022-10-06T05:10:28.754Z,62.62
2022-10-06T05:11:09.581Z,62.89
2022-10-06T05:11:44.936Z,62.95
2022-10-06T05:12:18.108Z,62.40
2022-10-06T05:12:51.310Z,61.70
2022-10-06T05:13:26.479Z,60.81
2022-10-06T05:14:00.101Z,60.13
2022-10-06T05:14:33.736Z,59.28
2022-10-06T05:15:07.578Z,58.29
2022-10-06T05:15:40.681Z,57.69
2022-10-06T05:16:16.648Z,57.50
2022-10-06T05:16:49.985Z,57.67
2022-10-06T05:17:23.227Z,58.10
2022-10-06T05:17:56.325Z,58.44
2022-10-06T05:18:31.298Z,58.98
2022-10-06T05:19:05.483Z,59.35
2022-10-06T05:19:38.721Z,59.78
2022-10-06T05:20:11.878Z,60.22
2022-10-06T05:20:54.826Z,60.76
2022-10-06T05:21:30.244Z,61.04
2022-10-06T05:22:03.339Z,61.66
2022-10-06T05:22:36.345Z,61.96
2022-10-06T05:23:09.422Z,62.27
2022-10-06T05:23:44.500Z,62.64
2022-10-06T05:24:17.733Z,62.95
2022-10-06T05:24:54.117Z,63.02
2022-10-06T05:25:27.420Z,62.70
2022-10-06T05:26:01.799Z,62.02
2022-10-06T05:26:36.442Z,61.29
2022-10-06T05:27:09.705Z,60.54
2022-10-06T05:27:42.824Z,59.63
2022-10-06T05:28:15.994Z,58.88
2022-10-06T05:28:49.620Z,58.45
2022-10-06T05:29:22.755Z,58.21
2022-10-06T05:29:55.999Z,58.23
2022-10-06T05:30:29.191Z,58.55
2022-10-06T05:31:10.533Z,58.84
2022-10-06T05:31:45.113Z,59.14
2022-10-06T05:32:18.312Z,59.74
2022-10-06T05:32:52.436Z,60.12
2022-10-06T05:33:27.746Z,60.49
2022-10-06T05:34:01.094Z,60.95
2022-10-06T05:34:34.631Z,61.28
2022-10-06T05:35:08.246Z,61.75
2022-10-06T05:35:51.896Z,62.07
2022-10-06T05:36:29.022Z,62.36
2022-10-06T05:37:02.287Z,62.75
2022-10-06T05:37:35.496Z,63.15
2022-10-06T05:38:11.913Z,63.19
2022-10-06T05:38:45.699Z,63.14
2022-10-06T05:39:18.869Z,62.48
2022-10-06T05:39:51.913Z,61.52
2022-10-06T05:40:25.297Z,61.09
2022-10-06T05:41:03.503Z,60.55
2022-10-06T05:41:37.987Z,59.78
2022-10-06T05:42:11.071Z,59.06
2022-10-06T05:42:44.295Z,58.08
2022-10-06T05:43:19.079Z,57.59
2022-10-06T05:43:53.467Z,57.45
2022-10-06T05:44:32.885Z,57.64
2022-10-06T05:45:06.333Z,58.10
2022-10-06T05:45:39.607Z,58.45
2022-10-06T05:46:21.167Z,58.91
2022-10-06T05:46:54.316Z,59.19
2022-10-06T05:47:27.412Z,59.83
2022-10-06T05:48:00.464Z,60.24
2022-10-06T05:48:34.114Z,60.76
2022-10-06T05:49:09.341Z,61.18
2022-10-06T05:49:42.370Z,61.38
2022-10-06T05:50:15.684Z,61.65
2022-10-06T05:50:49.932Z,61.99
2022-10-06T05:51:30.310Z,62.27
2022-10-06T05:52:04.411Z,62.48
2022-10-06T05:52:38.470Z,62.94
2022-10-06T05:53:12.374Z,62.89
2022-10-06T05:53:45.937Z,62.38
2022-10-06T05:54:19.086Z,61.38
2022-10-06T05:54:52.390Z,60.56
2022-10-06T05:55:26.661Z,59.92
2022-10-06T05:56:08.237Z,59.19
2022-10-06T05:56:41.743Z,58.31
2022-10-06T05:57:14.814Z,57.80
2022-10-06T05:57:47.996Z,57.79
2022-10-06T05:58:21.224Z,57.95
2022-10-06T05:58:56.248Z,58.31
2022-10-06T05:59:29.771Z,58.70
2022-10-06T06:00:03.204Z,59.09
2022-10-06T06:00:36.693Z,59.44
2022-10-06T06:01:24.883Z,59.93
2022-10-06T06:01:58.057Z,60.23
2022-10-06T06:02:31.357Z,60.91
2022-10-06T06:03:08.659Z,61.14
2022-10-06T06:03:47.365Z,61.40
2022-10-06T06:04:20.785Z,61.85
2022-10-06T06:04:54.025Z,62.16
2022-10-06T06:05:27.223Z,62.35
2022-10-06T06:06:00.959Z,62.66
2022-10-06T06:06:41.926Z,62.90
2022-10-06T06:07:15.050Z,62.89
2022-10-06T06:07:48.439Z,62.62
2022-10-06T06:08:21.653Z,62.27
2022-10-06T06:09:00.721Z,61.82
2022-10-06T06:09:33.950Z,61.66
2022-10-06T06:10:07.580Z,60.57
2022-10-06T06:10:40.772Z,59.61
2022-10-06T06:11:14.016Z,58.58
2022-10-06T06:11:49.771Z,57.76
2022-10-06T06:12:22.964Z,57.30
2022-10-06T06:12:56.106Z,57.21
2022-10-06T06:13:29.241Z,57.42
2022-10-06T06:14:05.202Z,57.66
2022-10-06T06:14:57.475Z,58.04
2022-10-06T06:15:49.481Z,58.72
2022-10-06T06:16:23.421Z,59.54
2022-10-06T06:16:56.804Z,59.88
2022-10-06T06:17:33.643Z,60.26
2022-10-06T06:18:06.669Z,60.50
2022-10-06T06:18:40.249Z,60.97
2022-10-06T06:19:14.645Z,61.35
2022-10-06T06:19:47.934Z,61.74
2022-10-06T06:20:21.165Z,62.04
2022-10-06T06:21:02.806Z,62.35
2022-10-06T06:21:37.053Z,62.55
2022-10-06T06:22:10.328Z,62.67
2022-10-06T06:22:43.520Z,62.59
2022-10-06T06:23:16.714Z,62.11
2022-10-06T06:23:50.543Z,61.73
2022-10-06T06:24:23.534Z,61.24
2022-10-06T06:24:56.636Z,60.76
2022-10-06T06:25:30.024Z,60.01
2022-10-06T06:26:09.337Z,59.30
2022-10-06T06:26:42.457Z,58.64
2022-10-06T06:27:15.515Z,57.81
2022-10-06T06:27:48.670Z,57.48
2022-10-06T06:28:22.379Z,57.48
2022-10-06T06:29:02.980Z,57.50
2022-10-06T06:29:36.177Z,57.78
2022-10-06T06:30:10.372Z,58.16
2022-10-06T06:30:44.517Z,58.57
2022-10-06T06:31:23.525Z,59.06
2022-10-06T06:31:56.811Z,59.43
2022-10-06T06:32:30.207Z,59.97
2022-10-06T06:33:03.467Z,60.16
2022-10-06T06:33:42.174Z,60.41
2022-10-06T06:34:15.288Z,60.72
2022-10-06T06:34:48.476Z,61.20
2022-10-06T06:35:21.675Z,61.61
2022-10-06T06:35:54.850Z,61.85
2022-10-06T06:36:35.999Z,62.14
2022-10-06T06:37:15.047Z,62.22
2022-10-06T06:37:49.477Z,62.42
2022-10-06T06:38:23.618Z,62.43
2022-10-06T06:38:58.772Z,62.53
2022-10-06T06:39:31.911Z,62.51
2022-10-06T06:40:05.300Z,62.40
2022-10-06T06:40:41.874Z,61.71
2022-10-06T06:41:26.768Z,60.60
2022-10-06T06:42:02.328Z,59.45
2022-10-06T06:42:35.383Z,58.38
2022-10-06T06:43:08.428Z,57.36
2022-10-06T06:43:42.782Z,56.93
2022-10-06T06:44:16.460Z,56.84
2022-10-06T06:44:49.621Z,56.95
2022-10-06T06:45:22.856Z,57.23
2022-10-06T06:46:04.601Z,57.51
2022-10-06T06:46:38.998Z,57.95
2022-10-06T06:47:12.206Z,58.33
2022-10-06T06:47:48.380Z,58.64
2022-10-06T06:48:21.559Z,59.25
2022-10-06T06:48:56.060Z,59.60
2022-10-06T06:49:29.199Z,59.86
2022-10-06T06:50:04.439Z,60.19
2022-10-06T06:50:37.451Z,60.27
2022-10-06T06:51:12.059Z,60.72
2022-10-06T06:51:50.116Z,61.22
2022-10-06T06:52:23.546Z,61.55
2022-10-06T06:52:56.863Z,61.78
2022-10-06T06:53:29.983Z,61.98
2022-10-06T06:54:03.817Z,62.18
2022-10-06T06:54:36.919Z,62.28
2022-10-06T06:55:10.042Z,62.61
2022-10-06T06:55:51.318Z,62.69
2022-10-06T06:56:24.593Z,62.60
2022-10-06T06:56:57.955Z,62.02
2022-10-06T06:57:31.218Z,61.38
2022-10-06T06:58:04.481Z,60.65
2022-10-06T06:58:38.278Z,59.58
2022-10-06T06:59:13.448Z,58.42
2022-10-06T06:59:46.810Z,57.58
2022-10-06T07:00:19.979Z,56.88
2022-10-06T07:00:53.307Z,56.79
2022-10-06T07:01:26.641Z,56.57
2022-10-06T07:02:01.230Z,56.87
2022-10-06T07:02:34.756Z,57.16
2022-10-06T07:03:24.097Z,57.48
2022-10-06T07:04:06.575Z,57.82
2022-10-06T07:04:39.638Z,58.46
2022-10-06T07:05:12.926Z,58.91
2022-10-06T07:05:47.384Z,59.25
2022-10-06T07:06:23.493Z,59.44
2022-10-06T07:06:59.194Z,59.75
2022-10-06T07:07:32.509Z,60.15
2022-10-06T07:08:10.088Z,60.52
2022-10-06T07:08:45.629Z,60.83
2022-10-06T07:09:18.879Z,60.95
2022-10-06T07:09:52.090Z,61.27
2022-10-06T07:10:27.978Z,61.45
2022-10-06T07:11:18.029Z,61.44
2022-10-06T07:11:51.163Z,61.44
2022-10-06T07:12:25.514Z,61.88
2022-10-06T07:12:58.819Z,62.00
2022-10-06T07:13:31.895Z,62.12
2022-10-06T07:14:14.978Z,62.36
2022-10-06T07:15:06.885Z,62.62
2022-10-06T07:15:59.144Z,62.89
2022-10-06T07:16:52.116Z,61.63
2022-10-06T07:17:43.982Z,60.15
2022-10-06T07:18:35.873Z,59.24
2022-10-06T07:19:32.341Z,57.58
2022-10-06T07:20:24.725Z,56.78
2022-10-06T07:21:16.733Z,56.83
2022-10-06T07:22:14.622Z,56.97
2022-10-06T07:23:06.662Z,57.69
2022-10-06T07:23:58.888Z,58.03
2022-10-06T07:24:50.889Z,58.79
2022-10-06T07:25:27.904Z,59.18
2022-10-06T07:26:00.963Z,59.48
2022-10-06T07:26:34.197Z,59.53
2022-10-06T07:27:07.442Z,59.72
2022-10-06T07:27:51.323Z,59.90
2022-10-06T07:28:24.442Z,60.24
2022-10-06T07:29:00.487Z,60.39
2022-10-06T07:29:33.703Z,60.53
2022-10-06T07:30:07.589Z,60.72
2022-10-06T07:30:41.210Z,61.04
2022-10-06T07:31:14.533Z,60.95
2022-10-06T07:31:47.602Z,61.14
2022-10-06T07:32:25.842Z,61.22
2022-10-06T07:32:59.046Z,61.25